Time;durP1;ratioP1;P1;durP2;ratioP2;P2;SDS_P1;SDS_P2;PMS_P1;PMS_P2;Temp;Humidity;BMP_temperature;BMP_pressure;BME280_temperature;BME280_humidity;BME280_pressure;Samples;Min_cycle;Max_cycle;Signal;HPM_P1;HPM_P2
2021/10/21 00:00:38;;;;;;;8.45;5.60;;;11.50;70.70;;;;;;5016799;28;20038;-84
2021/10/21 00:03:04;;;;;;;8.82;5.78;;;11.50;70.80;;;;;;5018208;28;20029;-83
2021/10/21 00:05:30;;;;;;;11.35;6.22;;;11.50;70.80;;;;;;5017588;28;20381;-83
2021/10/21 00:07:56;;;;;;;9.23;6.38;;;11.50;71.10;;;;;;5017299;28;20061;-83
2021/10/21 00:10:23;;;;;;;9.30;5.75;;;11.50;71.10;;;;;;5016474;28;20055;-83
2021/10/21 00:12:49;;;;;;;12.65;6.82;;;11.50;71.30;;;;;;5018283;28;20037;-83
2021/10/21 00:15:15;;;;;;;10.48;6.28;;;11.50;71.20;;;;;;5018421;28;20041;-83
2021/10/21 00:17:41;;;;;;;8.98;6.68;;;11.60;71.60;;;;;;5017412;28;20033;-83
2021/10/21 00:20:09;;;;;;;11.30;6.25;;;11.60;71.60;;;;;;4999446;28;20152;-82
2021/10/21 00:22:36;;;;;;;9.98;7.00;;;11.60;71.80;;;;;;5000012;28;20089;-82
2021/10/21 00:25:03;;;;;;;8.95;6.15;;;11.60;71.80;;;;;;4999619;28;20033;-82
2021/10/21 00:27:29;;;;;;;11.82;7.30;;;11.60;71.80;;;;;;4999960;28;20053;-82
2021/10/21 00:29:55;;;;;;;11.68;7.03;;;11.60;72.10;;;;;;5018064;28;20033;-83
2021/10/21 00:32:21;;;;;;;13.65;7.50;;;11.60;72.20;;;;;;5017289;28;20033;-83
2021/10/21 00:34:47;;;;;;;10.18;6.85;;;11.60;72.10;;;;;;5016293;28;20038;-82
2021/10/21 00:37:13;;;;;;;13.90;7.45;;;11.70;72.20;;;;;;5016895;28;20034;-83
2021/10/21 00:39:38;;;;;;;11.50;7.35;;;11.70;72.40;;;;;;4989463;28;20029;-83
2021/10/21 00:42:04;;;;;;;11.45;6.78;;;11.70;72.30;;;;;;5017993;28;20029;-83
2021/10/21 00:44:30;;;;;;;13.52;7.95;;;11.70;72.50;;;;;;5016894;28;20496;-83
2021/10/21 00:46:57;;;;;;;12.13;7.78;;;11.70;72.00;;;;;;4999705;28;20052;-83
2021/10/21 00:49:23;;;;;;;11.60;7.40;;;11.70;72.60;;;;;;5016969;28;20032;-83
2021/10/21 00:51:49;;;;;;;12.27;8.27;;;11.70;72.60;;;;;;5016255;28;20476;-82
2021/10/21 00:54:18;;;;;;;10.18;7.78;;;11.80;72.70;;;;;;5001155;28;20155;-83
2021/10/21 00:56:45;;;;;;;10.93;7.28;;;11.80;72.90;;;;;;5016774;28;20085;-84
2021/10/21 00:59:13;;;;;;;15.23;8.05;;;11.80;73.00;;;;;;5016971;28;20042;-83
2021/10/21 01:01:39;;;;;;;14.50;7.65;;;11.80;73.10;;;;;;4999810;28;20033;-84
2021/10/21 01:04:05;;;;;;;13.90;8.40;;;11.80;73.10;;;;;;4999487;28;20034;-83
2021/10/21 01:06:32;;;;;;;13.70;8.15;;;11.80;73.20;;;;;;5017502;28;20099;-84
2021/10/21 01:09:03;;;;;;;15.98;8.75;;;11.80;73.20;;;;;;5017339;28;20038;-83
2021/10/21 01:11:29;;;;;;;10.88;7.68;;;11.80;73.30;;;;;;4987490;28;20431;-84
2021/10/21 01:13:55;;;;;;;14.40;8.00;;;11.90;73.30;;;;;;4985480;28;20041;-84
2021/10/21 01:16:21;;;;;;;13.48;8.82;;;11.90;73.60;;;;;;5016799;28;20042;-84
2021/10/21 01:18:47;;;;;;;12.93;8.35;;;11.90;73.70;;;;;;5017199;28;20128;-82
2021/10/21 01:21:13;;;;;;;12.20;8.32;;;11.90;73.70;;;;;;5016404;28;20034;-83
2021/10/21 01:23:40;;;;;;;13.52;8.82;;;11.90;73.90;;;;;;5014830;28;20037;-82
2021/10/21 01:26:12;;;;;;;14.68;8.45;;;12.00;73.90;;;;;;4998763;28;20504;-82
2021/10/21 01:28:39;;;;;;;13.77;8.82;;;11.90;73.70;;;;;;4999090;28;20056;-82
2021/10/21 01:31:05;;;;;;;14.07;8.40;;;12.00;73.90;;;;;;4999041;28;20489;-82
2021/10/21 01:33:33;;;;;;;14.10;8.05;;;12.00;73.80;;;;;;5016842;28;20048;-82
2021/10/21 01:35:59;;;;;;;12.95;8.10;;;12.00;73.90;;;;;;5016216;28;20038;-83
2021/10/21 01:38:25;;;;;;;14.48;8.90;;;12.00;74.20;;;;;;4998726;28;20915;-82
2021/10/21 01:40:51;;;;;;;12.13;7.88;;;12.00;74.20;;;;;;5003463;28;20054;-83
2021/10/21 01:43:17;;;;;;;14.65;8.07;;;12.00;74.30;;;;;;5021232;28;20365;-82
2021/10/21 01:45:43;;;;;;;12.18;8.48;;;12.00;74.30;;;;;;5019920;28;20412;-82
2021/10/21 01:48:09;;;;;;;14.18;8.02;;;12.10;74.30;;;;;;5020603;28;20033;-83
2021/10/21 01:50:36;;;;;;;14.48;8.40;;;12.10;74.30;;;;;;5002273;28;20040;-83
2021/10/21 01:53:02;;;;;;;12.98;8.50;;;12.00;74.30;;;;;;5002821;28;20136;-82
2021/10/21 01:55:28;;;;;;;13.93;8.27;;;12.10;74.70;;;;;;5002857;28;20021;-82
2021/10/21 01:57:54;;;;;;;14.30;8.77;;;12.10;74.70;;;;;;4999296;28;20050;-83
2021/10/21 02:00:23;;;;;;;13.18;8.15;;;12.10;74.80;;;;;;4987763;28;20041;-82
2021/10/21 02:02:50;;;;;;;11.20;7.80;;;12.10;74.70;;;;;;4987258;28;20121;-82
2021/10/21 02:05:18;;;;;;;13.18;8.48;;;12.20;74.80;;;;;;4982677;28;20053;-84
2021/10/21 02:07:44;;;;;;;12.05;8.60;;;12.20;74.70;;;;;;4999580;28;20038;-83
2021/10/21 02:10:20;;;;;;;11.57;7.82;;;12.20;74.80;;;;;;5000177;28;20400;-83
2021/10/21 02:12:47;;;;;;;12.65;8.32;;;12.20;74.80;;;;;;5000800;28;20068;-82
2021/10/21 02:15:14;;;;;;;12.70;8.63;;;12.20;75.00;;;;;;4982406;28;20166;-82
2021/10/21 02:17:40;;;;;;;12.70;8.23;;;12.20;75.00;;;;;;4998731;28;20396;-84
2021/10/21 02:20:08;;;;;;;11.15;7.80;;;12.20;75.00;;;;;;4998342;28;20037;-84
2021/10/21 02:22:34;;;;;;;11.80;8.20;;;12.20;75.20;;;;;;4982995;28;20425;-84
2021/10/21 02:25:00;;;;;;;11.60;7.65;;;12.20;75.10;;;;;;4999579;28;20093;-85
2021/10/21 02:27:26;;;;;;;12.57;7.95;;;12.30;75.30;;;;;;4998742;28;20033;-84
2021/10/21 02:29:52;;;;;;;12.30;7.90;;;12.20;75.10;;;;;;5000041;28;20483;-82
2021/10/21 02:32:18;;;;;;;11.95;8.57;;;12.30;75.40;;;;;;5000699;28;20128;-83
2021/10/21 02:34:44;;;;;;;11.48;8.02;;;12.30;75.50;;;;;;4998520;28;20056;-84
2021/10/21 02:37:10;;;;;;;10.60;7.63;;;12.30;75.70;;;;;;5000205;28;20080;-83
2021/10/21 02:39:36;;;;;;;14.20;8.35;;;12.30;75.80;;;;;;4998618;28;20034;-83
2021/10/21 02:42:02;;;;;;;14.30;9.27;;;12.30;75.80;;;;;;4999889;28;20152;-82
2021/10/21 02:44:27;;;;;;;11.52;8.45;;;12.40;75.80;;;;;;4999421;28;20042;-84
2021/10/21 02:46:53;;;;;;;13.70;9.00;;;12.40;75.90;;;;;;4998676;28;20061;-82
2021/10/21 02:49:19;;;;;;;13.63;8.65;;;12.40;75.90;;;;;;4998304;28;20042;-81
2021/10/21 02:51:45;;;;;;;14.13;8.80;;;12.40;76.60;;;;;;4999236;28;20038;-84
2021/10/21 02:54:11;;;;;;;13.80;9.35;;;12.40;76.60;;;;;;4999582;28;20034;-83
2021/10/21 02:56:37;;;;;;;13.50;9.23;;;12.40;76.00;;;;;;5002814;28;20050;-82
2021/10/21 02:59:03;;;;;;;13.30;8.70;;;12.40;76.20;;;;;;4999961;28;20038;-82
2021/10/21 03:01:29;;;;;;;15.70;9.25;;;12.40;76.30;;;;;;4977410;28;20033;-82
2021/10/21 03:03:55;;;;;;;13.20;9.30;;;12.40;76.30;;;;;;4999619;28;20030;-82
2021/10/21 03:06:21;;;;;;;14.13;9.23;;;12.50;76.50;;;;;;5018927;28;20056;-82
2021/10/21 03:08:46;;;;;;;13.38;9.65;;;12.50;76.60;;;;;;4976233;28;20600;-82
2021/10/21 03:11:12;;;;;;;12.73;9.02;;;12.50;76.70;;;;;;4984322;28;20034;-82
2021/10/21 03:13:38;;;;;;;14.50;9.50;;;12.50;76.80;;;;;;5002053;28;20037;-83
2021/10/21 03:16:04;;;;;;;15.48;10.57;;;12.50;76.80;;;;;;5001585;28;20042;-83
2021/10/21 03:18:30;;;;;;;16.42;10.18;;;12.50;76.90;;;;;;5019804;28;20030;-82
2021/10/21 03:20:56;;;;;;;16.35;10.57;;;12.50;76.60;;;;;;5018705;28;20034;-82
2021/10/21 03:23:25;;;;;;;17.95;10.80;;;12.50;76.90;;;;;;5000000;28;21318;-82
2021/10/21 03:25:51;;;;;;;16.27;10.55;;;12.50;77.00;;;;;;5000609;28;20467;-83
2021/10/21 03:28:17;;;;;;;15.30;10.50;;;12.60;77.00;;;;;;5000582;28;20038;-83
2021/10/21 03:30:43;;;;;;;18.98;10.93;;;12.60;77.10;;;;;;5017561;28;20040;-82
2021/10/21 03:33:09;;;;;;;18.15;11.38;;;12.60;77.10;;;;;;5020134;28;20042;-82
2021/10/21 03:35:35;;;;;;;20.08;11.77;;;12.60;77.30;;;;;;5016650;28;20061;-83
2021/10/21 03:38:01;;;;;;;18.45;11.15;;;12.60;77.10;;;;;;5019016;28;20036;-81
2021/10/21 03:40:27;;;;;;;17.00;11.50;;;12.60;77.20;;;;;;5018617;28;20033;-83
2021/10/21 03:42:53;;;;;;;16.98;11.48;;;12.60;77.20;;;;;;5000288;28;20030;-83
2021/10/21 03:45:19;;;;;;;17.42;11.68;;;12.70;77.30;;;;;;5004476;28;20044;-83
2021/10/21 03:47:45;;;;;;;16.77;12.40;;;12.60;77.40;;;;;;4999968;28;20037;-82
2021/10/21 03:50:10;;;;;;;18.25;12.27;;;12.70;77.50;;;;;;5018298;28;20038;-83
2021/10/21 03:52:36;;;;;;;17.50;12.10;;;12.70;77.60;;;;;;4999773;28;20042;-84
2021/10/21 03:55:03;;;;;;;19.25;12.32;;;12.70;77.50;;;;;;5017942;28;20045;-83
2021/10/21 03:57:29;;;;;;;17.98;11.77;;;12.70;77.60;;;;;;4999887;28;20060;-83
2021/10/21 03:59:55;;;;;;;18.85;13.00;;;12.70;77.70;;;;;;5016822;28;20129;-82
2021/10/21 04:02:21;;;;;;;20.05;12.60;;;12.70;77.60;;;;;;5017111;28;20571;-83
2021/10/21 04:04:46;;;;;;;19.67;13.13;;;12.70;77.50;;;;;;5016866;28;20128;-82
2021/10/21 04:07:12;;;;;;;19.42;12.55;;;12.70;77.40;;;;;;5017732;28;20037;-83
2021/10/21 04:09:38;;;;;;;22.10;12.88;;;12.70;77.50;;;;;;5017106;28;20124;-82
2021/10/21 04:12:05;;;;;;;21.15;12.38;;;12.80;77.30;;;;;;5000849;28;20139;-82
2021/10/21 04:14:31;;;;;;;21.02;13.48;;;12.80;77.40;;;;;;5000172;28;20087;-81
2021/10/21 04:16:56;;;;;;;19.60;12.50;;;12.80;77.50;;;;;;5018061;28;20428;-84
2021/10/21 04:19:22;;;;;;;21.25;13.00;;;12.80;77.70;;;;;;5017025;28;20038;-82
2021/10/21 04:21:48;;;;;;;22.13;13.82;;;12.80;77.70;;;;;;5017740;28;20033;-82
2021/10/21 04:24:14;;;;;;;17.27;11.82;;;12.80;77.70;;;;;;4997971;28;21058;-82
2021/10/21 04:26:40;;;;;;;20.05;13.77;;;12.80;77.70;;;;;;5017376;28;20040;-80
2021/10/21 04:29:06;;;;;;;20.08;12.40;;;12.80;77.40;;;;;;4998541;28;20029;-81
2021/10/21 04:31:32;;;;;;;18.52;12.07;;;12.90;77.70;;;;;;5016833;28;20029;-82
2021/10/21 04:33:58;;;;;;;16.98;11.55;;;12.90;77.50;;;;;;5017023;28;20038;-82
2021/10/21 04:36:24;;;;;;;20.88;12.27;;;12.90;77.60;;;;;;4999044;28;20037;-84
2021/10/21 04:38:50;;;;;;;20.90;13.07;;;12.90;77.60;;;;;;4999465;28;20025;-82
2021/10/21 04:41:16;;;;;;;20.40;12.70;;;12.90;77.70;;;;;;5001594;28;20029;-82
2021/10/21 04:43:42;;;;;;;19.10;12.75;;;12.90;77.80;;;;;;5015778;28;20038;-81
2021/10/21 04:46:08;;;;;;;18.05;12.98;;;12.90;77.70;;;;;;5017209;28;20029;-83
2021/10/21 04:48:34;;;;;;;18.15;12.52;;;12.90;77.40;;;;;;5017045;28;20048;-81
2021/10/21 04:51:00;;;;;;;21.63;12.52;;;12.90;77.70;;;;;;5016369;28;20053;-82
2021/10/21 04:53:26;;;;;;;17.27;12.32;;;13.00;77.70;;;;;;5017554;28;20049;-82
2021/10/21 04:55:52;;;;;;;19.08;11.85;;;13.00;77.20;;;;;;5000000;28;20032;-82
2021/10/21 04:58:17;;;;;;;17.02;11.77;;;13.00;77.40;;;;;;5015958;28;20038;-81
2021/10/21 05:00:43;;;;;;;17.95;11.68;;;13.00;77.40;;;;;;5014848;28;20492;-81
2021/10/21 05:03:12;;;;;;;17.05;11.88;;;13.00;77.80;;;;;;5015921;28;20034;-80
2021/10/21 05:05:40;;;;;;;17.00;11.82;;;13.00;77.90;;;;;;5015700;28;20100;-81
2021/10/21 05:08:06;;;;;;;16.60;11.27;;;13.00;77.50;;;;;;4997989;28;20527;-81
2021/10/21 05:10:32;;;;;;;19.58;11.95;;;13.00;77.40;;;;;;5016772;28;20343;-80
2021/10/21 05:12:59;;;;;;;14.35;10.85;;;13.00;77.80;;;;;;5016789;28;20102;-81
2021/10/21 05:15:25;;;;;;;17.60;11.23;;;13.00;77.50;;;;;;5016837;28;20444;-81
2021/10/21 05:17:51;;;;;;;17.83;12.25;;;13.00;77.60;;;;;;5016811;28;20116;-82
2021/10/21 05:20:17;;;;;;;19.02;11.75;;;13.10;77.70;;;;;;5015502;28;20038;-81
2021/10/21 05:22:43;;;;;;;16.83;12.10;;;13.10;77.70;;;;;;5015103;28;20428;-82
2021/10/21 05:25:09;;;;;;;15.48;11.23;;;13.10;77.60;;;;;;5016308;28;20025;-81
2021/10/21 05:27:38;;;;;;;18.15;11.25;;;13.10;77.50;;;;;;4997256;28;20053;-82
2021/10/21 05:30:06;;;;;;;15.77;10.55;;;13.10;77.30;;;;;;5015033;28;20038;-81
2021/10/21 05:32:32;;;;;;;16.80;10.95;;;13.10;77.00;;;;;;5016226;28;20396;-82
2021/10/21 05:34:58;;;;;;;15.82;11.48;;;13.10;77.00;;;;;;5016866;28;20038;-81
2021/10/21 05:37:24;;;;;;;14.20;11.45;;;13.10;77.40;;;;;;5015612;28;20121;-81
2021/10/21 05:39:50;;;;;;;15.80;11.07;;;13.10;77.40;;;;;;5015422;28;20112;-83
2021/10/21 05:42:16;;;;;;;17.98;11.45;;;13.10;77.20;;;;;;5001546;28;20037;-81
2021/10/21 05:44:42;;;;;;;15.93;11.00;;;13.10;77.10;;;;;;5016485;28;20044;-80
2021/10/21 05:47:08;;;;;;;18.77;11.45;;;13.10;77.20;;;;;;5016631;28;20042;-81
2021/10/21 05:49:34;;;;;;;16.83;10.90;;;13.10;77.10;;;;;;5015648;28;20042;-81
2021/10/21 05:52:00;;;;;;;15.27;11.88;;;13.10;77.10;;;;;;5016096;28;20039;-81
2021/10/21 05:54:26;;;;;;;14.77;10.60;;;13.20;77.20;;;;;;5014463;28;20056;-81
2021/10/21 05:56:52;;;;;;;16.23;10.68;;;13.20;77.20;;;;;;4997434;28;20393;-81
2021/10/21 05:59:18;;;;;;;17.50;11.55;;;13.20;77.00;;;;;;5015982;28;20030;-82
2021/10/21 06:01:44;;;;;;;17.05;11.45;;;13.20;77.10;;;;;;4997632;28;20528;-81
2021/10/21 06:04:09;;;;;;;16.98;11.23;;;13.20;77.30;;;;;;5015736;28;20395;-81
2021/10/21 06:06:37;;;;;;;15.10;10.80;;;13.20;77.60;;;;;;5015126;28;20035;-81
2021/10/21 06:09:04;;;;;;;14.65;10.55;;;13.20;77.50;;;;;;5014592;28;20092;-81
2021/10/21 06:11:31;;;;;;;17.60;10.75;;;13.20;77.60;;;;;;5015726;28;20037;-80
2021/10/21 06:13:58;;;;;;;13.98;10.85;;;13.20;77.90;;;;;;5017584;28;20488;-82
2021/10/21 06:16:24;;;;;;;18.15;11.38;;;13.30;77.60;;;;;;5015053;28;20033;-79
2021/10/21 06:18:49;;;;;;;17.00;11.30;;;13.30;77.70;;;;;;5014376;28;20030;-81
2021/10/21 06:21:21;;;;;;;17.23;10.88;;;13.30;77.80;;;;;;5014706;28;20042;-80
2021/10/21 06:23:47;;;;;;;16.17;10.85;;;13.30;77.80;;;;;;5015447;28;20042;-80
2021/10/21 06:26:16;;;;;;;14.05;10.80;;;13.30;78.20;;;;;;5000526;28;20029;-79
2021/10/21 06:28:51;;;;;;;14.35;10.48;;;13.30;78.20;;;;;;5019005;28;20053;-79
2021/10/21 06:31:18;;;;;;;17.30;11.77;;;13.30;78.30;;;;;;5017636;28;20125;-79
2021/10/21 06:33:44;;;;;;;16.05;11.15;;;13.30;78.70;;;;;;5017634;28;20037;-79
2021/10/21 06:36:11;;;;;;;16.38;10.35;;;13.30;78.70;;;;;;5018960;28;20658;-80
2021/10/21 06:38:38;;;;;;;21.08;10.93;;;13.40;78.70;;;;;;4976990;28;20022;-81
2021/10/21 06:41:04;;;;;;;16.20;10.27;;;13.40;79.10;;;;;;5018348;28;20037;-85
2021/10/21 06:43:31;;;;;;;14.32;10.32;;;13.40;78.90;;;;;;5018956;28;20045;-84
2021/10/21 06:45:57;;;;;;;12.75;9.82;;;13.40;79.00;;;;;;5002239;28;20076;-83
2021/10/21 06:48:23;;;;;;;13.90;9.65;;;13.40;79.00;;;;;;4998152;28;20037;-84
2021/10/21 06:50:49;;;;;;;17.27;9.75;;;13.50;79.20;;;;;;5027487;28;20136;-86
2021/10/21 06:53:16;;;;;;;19.05;10.27;;;13.50;80.10;;;;;;5033123;28;20910;-83
2021/10/21 06:55:42;;;;;;;16.15;10.40;;;13.50;81.00;;;;;;4986624;28;20087;-82
2021/10/21 06:58:08;;;;;;;15.63;9.82;;;13.50;80.90;;;;;;5019172;28;20053;-82
2021/10/21 07:00:41;;;;;;;13.75;10.10;;;13.50;81.90;;;;;;5021356;28;20476;-84
2021/10/21 07:03:09;;;;;;;16.13;9.80;;;13.60;81.90;;;;;;4978380;28;20028;-84
2021/10/21 07:05:42;;;;;;;14.85;9.88;;;13.60;82.20;;;;;;5004052;28;20095;-83
2021/10/21 07:08:12;;;;;;;14.30;10.43;;;13.60;82.10;;;;;;5019767;28;20037;-81
2021/10/21 07:10:39;;;;;;;14.23;9.32;;;13.60;83.10;;;;;;5029498;28;20073;-86
2021/10/21 07:13:06;;;;;;;14.07;8.82;;;13.60;83.20;;;;;;4990272;28;20022;-83
2021/10/21 07:15:33;;;;;;;17.35;9.63;;;13.70;83.40;;;;;;5009611;28;20511;-84
2021/10/21 07:17:59;;;;;;;12.68;8.55;;;13.70;83.50;;;;;;5017437;28;20072;-85
2021/10/21 07:20:25;;;;;;;19.38;9.70;;;13.80;83.20;;;;;;5032571;28;20037;-84
2021/10/21 07:22:51;;;;;;;11.25;8.23;;;13.80;83.30;;;;;;5033661;28;20025;-85
2021/10/21 07:25:18;;;;;;;13.25;8.52;;;13.80;83.00;;;;;;5030100;28;20037;-85
2021/10/21 07:27:44;;;;;;;12.70;7.97;;;13.80;83.40;;;;;;5018815;28;20033;-84
2021/10/21 07:30:11;;;;;;;12.82;8.52;;;13.80;83.00;;;;;;5034279;28;20037;-84
2021/10/21 07:32:38;;;;;;;15.82;7.97;;;13.90;83.40;;;;;;5000196;28;20033;-85
2021/10/21 07:35:05;;;;;;;13.20;9.05;;;13.90;83.10;;;;;;5022226;28;20385;-85
2021/10/21 07:37:31;;;;;;;16.73;10.00;;;13.90;83.30;;;;;;5013916;28;20057;-85
2021/10/21 07:39:57;;;;;;;14.25;10.45;;;13.90;83.70;;;;;;5031177;28;20129;-84
2021/10/21 07:42:23;;;;;;;13.25;8.52;;;13.90;83.30;;;;;;4996575;28;20030;-84
2021/10/21 07:44:49;;;;;;;13.57;9.10;;;14.00;83.20;;;;;;4983568;28;20033;-84
2021/10/21 07:47:18;;;;;;;13.85;9.10;;;14.00;82.90;;;;;;5032438;28;20124;-85
2021/10/21 07:49:44;;;;;;;15.98;8.95;;;14.00;83.20;;;;;;5000682;28;20037;-84
2021/10/21 07:52:11;;;;;;;13.30;8.95;;;14.00;83.20;;;;;;5014117;28;20101;-85
2021/10/21 07:54:40;;;;;;;13.88;8.90;;;14.00;83.20;;;;;;4983054;28;20034;-86
2021/10/21 07:57:06;;;;;;;12.90;9.45;;;14.10;83.00;;;;;;5031721;28;20405;-86
2021/10/21 07:59:36;;;;;;;15.23;9.18;;;14.10;83.00;;;;;;4999391;28;20063;-85
2021/10/21 08:02:03;;;;;;;13.98;10.13;;;14.10;83.20;;;;;;5015038;28;20120;-85
2021/10/21 08:04:30;;;;;;;12.70;9.25;;;14.10;82.50;;;;;;4975418;28;20166;-85
2021/10/21 08:06:57;;;;;;;17.90;10.77;;;14.10;82.90;;;;;;4988980;28;20061;-87
2021/10/21 08:09:32;;;;;;;15.77;10.05;;;14.20;83.30;;;;;;5001096;28;20628;-85
2021/10/21 08:12:00;;;;;;;14.95;9.32;;;14.20;83.10;;;;;;5000990;28;20429;-85
2021/10/21 08:14:27;;;;;;;11.77;9.43;;;14.20;82.90;;;;;;4999590;28;20065;-87
2021/10/21 08:16:53;;;;;;;14.65;9.82;;;14.20;82.70;;;;;;5016555;28;20033;-87
2021/10/21 08:19:20;;;;;;;13.32;9.20;;;14.20;82.80;;;;;;5000352;28;20032;-85
2021/10/21 08:22:22;;;;;;;15.02;10.20;;;14.20;82.50;;;;;;4984502;28;20120;-85
2021/10/21 08:24:54;;;;;;;15.40;9.95;;;14.30;82.20;;;;;;5019221;28;20048;-86
2021/10/21 08:27:26;;;;;;;13.65;10.23;;;14.30;81.70;;;;;;5018856;28;20052;-87
2021/10/21 08:29:55;;;;;;;14.52;9.65;;;14.30;82.20;;;;;;5022050;28;20029;-87
2021/10/21 08:40:11;;;;;;;13.25;9.05;;;14.30;81.90;;;;;;4872916;29;20047;-85
2021/10/21 08:43:19;;;;;;;20.08;10.05;;;14.40;82.30;;;;;;4824502;29;20082;-86
2021/10/21 08:50:03;;;;;;;14.23;9.80;;;14.40;81.80;;;;;;4827650;29;20312;-86
2021/10/21 08:53:21;;;;;;;13.50;9.18;;;14.40;82.10;;;;;;4810320;29;20152;-87
2021/10/21 08:56:41;;;;;;;14.35;9.48;;;14.40;81.90;;;;;;4843878;29;20049;-89
2021/10/21 08:59:10;;;;;;;13.68;9.55;;;14.50;81.70;;;;;;4826507;29;20059;-86
2021/10/21 09:01:46;;;;;;;15.32;9.80;;;14.40;81.60;;;;;;4810157;29;20115;-85
2021/10/21 09:11:30;;;;;;;12.02;8.77;;;14.50;82.10;;;;;;4913285;29;20051;-87
2021/10/21 09:18:25;;;;;;;13.57;9.68;;;14.50;80.90;;;;;;4931200;28;20036;-87
2021/10/21 09:21:45;;;;;;;15.30;9.77;;;14.50;82.30;;;;;;4890930;29;20402;-85
2021/10/21 09:25:06;;;;;;;15.65;10.50;;;14.60;82.20;;;;;;4979200;28;20042;-85
2021/10/21 09:28:23;;;;;;;15.77;9.65;;;14.60;82.40;;;;;;4985502;28;20045;-88
2021/10/21 09:32:03;;;;;;;14.55;9.73;;;14.60;82.10;;;;;;4898275;28;20109;-89
2021/10/21 09:36:05;;;;;;;13.57;9.48;;;14.60;82.10;;;;;;4899511;29;20036;-90
2021/10/21 09:38:34;;;;;;;15.15;10.35;;;14.70;82.20;;;;;;4907307;29;20559;-91
2021/10/21 09:41:20;;;;;;;13.32;9.55;;;14.70;82.40;;;;;;4907700;29;20040;-91
2021/10/21 09:44:03;;;;;;;13.52;9.00;;;14.70;82.30;;;;;;4898716;29;20065;-90
2021/10/21 09:46:50;;;;;;;13.35;9.57;;;14.70;82.10;;;;;;4875684;29;20032;-91
2021/10/21 09:50:36;;;;;;;;;;;;;;;;;;;;;
2021/10/21 09:53:32;;;;;;;16.70;9.63;;;14.70;81.90;;;;;;4987404;28;20050;-91
2021/10/21 09:56:26;;;;;;;14.40;10.40;;;14.70;81.90;;;;;;4930577;29;20051;-90
2021/10/21 09:59:11;;;;;;;12.98;9.30;;;14.80;82.40;;;;;;4936634;29;20047;-91
2021/10/21 10:01:56;;;;;;;12.07;9.10;;;14.80;82.00;;;;;;4929876;29;20047;-91
2021/10/21 10:05:15;;;;;;;14.85;9.90;;;14.80;81.80;;;;;;4925352;29;20287;-91
2021/10/21 10:07:47;;;;;;;13.30;9.60;;;14.80;81.80;;;;;;4930688;29;20040;-90
2021/10/21 10:10:44;;;;;;;11.88;9.05;;;14.90;81.70;;;;;;4911262;29;20646;-91
2021/10/21 10:17:50;;;;;;;11.27;8.77;;;14.90;81.20;;;;;;4864057;29;20084;-92
2021/10/21 10:34:53;;;;;;;12.40;9.13;;;14.90;81.60;;;;;;4761584;30;20065;-87
2021/10/21 10:37:56;;;;;;;11.38;9.05;;;14.90;81.20;;;;;;4753492;30;20081;-88
2021/10/21 10:45:36;;;;;;;10.35;7.80;;;14.90;82.00;;;;;;4802656;29;20679;-86
2021/10/21 10:48:43;;;;;;;12.60;8.88;;;15.00;81.50;;;;;;4798502;29;20059;-85
2021/10/21 10:52:04;;;;;;;12.70;8.63;;;15.00;82.00;;;;;;4851364;28;20544;-84
2021/10/21 10:54:53;;;;;;;;;;;;;;;;;;;;;
2021/10/21 10:57:49;;;;;;;11.45;8.98;;;15.00;82.00;;;;;;5000236;28;20032;-84
2021/10/21 11:00:35;;;;;;;13.95;9.40;;;15.00;82.20;;;;;;4981675;28;20049;-86
2021/10/21 11:03:01;;;;;;;15.15;8.25;;;15.10;82.00;;;;;;5003960;28;20053;-89
2021/10/21 11:05:46;;;;;;;15.70;9.18;;;15.10;82.40;;;;;;4984336;28;20042;-84
2021/10/21 11:08:13;;;;;;;11.70;8.68;;;15.10;81.80;;;;;;4997740;28;20034;-85
2021/10/21 11:11:01;;;;;;;11.68;8.80;;;15.10;81.80;;;;;;4982667;28;20042;-85
2021/10/21 11:13:27;;;;;;;14.80;8.50;;;15.10;81.50;;;;;;4982434;28;20051;-84
2021/10/21 11:15:55;;;;;;;11.20;8.40;;;15.20;81.60;;;;;;5017783;28;20067;-85
2021/10/21 11:18:25;;;;;;;11.02;8.85;;;15.10;81.60;;;;;;4987573;28;20032;-85
2021/10/21 11:20:52;;;;;;;15.27;9.43;;;15.20;82.00;;;;;;4969842;28;20027;-84
2021/10/21 11:23:27;;;;;;;11.73;8.70;;;15.20;82.20;;;;;;4984893;28;20394;-83
2021/10/21 11:26:03;;;;;;;17.40;8.88;;;15.20;82.20;;;;;;4995497;28;20038;-84
2021/10/21 11:28:33;;;;;;;11.70;8.80;;;15.20;82.30;;;;;;4969542;28;20104;-87
2021/10/21 11:31:00;;;;;;;13.27;9.00;;;15.20;82.00;;;;;;4995706;28;20134;-81
2021/10/21 11:33:26;;;;;;;10.48;8.32;;;15.20;81.70;;;;;;4995310;28;20445;-81
2021/10/21 11:35:53;;;;;;;10.85;8.57;;;15.20;82.20;;;;;;4998976;28;20033;-82
2021/10/21 11:38:20;;;;;;;13.45;9.45;;;15.20;82.20;;;;;;4995545;28;20030;-84
2021/10/21 11:40:51;;;;;;;13.10;9.70;;;15.30;81.80;;;;;;4996632;28;20046;-80
2021/10/21 11:43:38;;;;;;;13.45;9.60;;;15.20;82.00;;;;;;5007836;28;20041;-82
2021/10/21 11:46:05;;;;;;;14.27;8.77;;;15.30;82.30;;;;;;5005893;28;20049;-80
2021/10/21 11:48:34;;;;;;;12.82;9.85;;;15.30;81.70;;;;;;5010855;28;20061;-80
2021/10/21 11:51:03;;;;;;;11.85;9.20;;;15.30;82.10;;;;;;4979429;28;20181;-85
2021/10/21 11:53:30;;;;;;;12.52;8.57;;;15.30;82.00;;;;;;4973376;28;20035;-81
2021/10/21 11:55:56;;;;;;;13.38;9.75;;;15.30;82.00;;;;;;5003277;28;20092;-80
2021/10/21 11:58:26;;;;;;;14.20;9.50;;;15.30;82.20;;;;;;5011006;28;20416;-84
2021/10/21 12:01:02;;;;;;;14.63;9.30;;;15.30;81.90;;;;;;4951630;28;20042;-85
2021/10/21 12:03:45;;;;;;;14.57;9.23;;;15.30;82.20;;;;;;4994327;28;20084;-83
2021/10/21 12:06:16;;;;;;;11.38;9.00;;;15.30;82.30;;;;;;4988998;28;20057;-83
2021/10/21 12:08:54;;;;;;;9.38;8.38;;;15.30;82.00;;;;;;5013813;28;20033;-81
2021/10/21 12:11:20;;;;;;;12.30;8.63;;;15.30;81.70;;;;;;5000515;28;20061;-81
2021/10/21 12:13:46;;;;;;;12.20;8.70;;;15.30;81.80;;;;;;4985528;28;20046;-82
2021/10/21 12:16:21;;;;;;;16.35;9.48;;;15.30;82.00;;;;;;4999965;28;20034;-83
2021/10/21 12:18:47;;;;;;;10.57;8.98;;;15.30;81.90;;;;;;4982622;28;20042;-82
2021/10/21 12:21:13;;;;;;;13.35;9.07;;;15.30;81.60;;;;;;4969548;28;20519;-81
2021/10/21 12:23:51;;;;;;;12.93;8.88;;;15.40;82.10;;;;;;4997427;28;20043;-80
2021/10/21 12:26:30;;;;;;;15.35;9.05;;;15.40;81.70;;;;;;4996274;28;20038;-81
2021/10/21 12:29:28;;;;;;;11.40;7.97;;;15.40;81.90;;;;;;4979028;28;20041;-81
2021/10/21 12:31:54;;;;;;;12.43;8.88;;;15.40;81.40;;;;;;4980911;28;20049;-85
2021/10/21 12:34:25;;;;;;;11.55;8.85;;;15.40;81.30;;;;;;4997931;28;20523;-82
2021/10/21 12:36:53;;;;;;;11.35;7.80;;;15.40;81.60;;;;;;4979973;28;20403;-84
2021/10/21 12:39:27;;;;;;;14.82;8.85;;;15.40;81.30;;;;;;4979633;28;20043;-85
2021/10/21 12:41:55;;;;;;;13.35;8.95;;;15.40;81.50;;;;;;4997603;28;20100;-84
2021/10/21 12:44:26;;;;;;;11.57;9.18;;;15.40;81.30;;;;;;4996758;28;20512;-84
2021/10/21 12:47:13;;;;;;;12.65;8.77;;;15.40;81.20;;;;;;4998854;28;20125;-84
2021/10/21 12:49:51;;;;;;;12.07;8.65;;;15.40;81.20;;;;;;4996776;28;20580;-80
2021/10/21 12:52:24;;;;;;;15.15;9.57;;;15.40;81.20;;;;;;4995746;28;20099;-81
2021/10/21 12:55:19;;;;;;;12.60;9.25;;;15.40;81.30;;;;;;4997445;28;20030;-83
2021/10/21 12:57:59;;;;;;;13.40;9.60;;;15.40;81.20;;;;;;4979814;28;20046;-82
2021/10/21 13:00:37;;;;;;;15.63;9.80;;;15.40;81.30;;;;;;4994665;28;20045;-82
2021/10/21 13:03:07;;;;;;;14.00;9.00;;;15.40;81.30;;;;;;4996306;28;20049;-83
2021/10/21 13:05:34;;;;;;;12.73;8.82;;;15.40;81.60;;;;;;4994796;28;20034;-82
2021/10/21 13:08:00;;;;;;;13.93;9.73;;;15.40;81.40;;;;;;4996222;28;20042;-82
2021/10/21 13:10:27;;;;;;;21.63;9.75;;;15.40;81.60;;;;;;4997682;28;20384;-81
2021/10/21 13:12:54;;;;;;;18.90;9.32;;;15.40;81.80;;;;;;4995973;28;20053;-81
2021/10/21 13:15:21;;;;;;;12.63;9.27;;;15.50;81.80;;;;;;4996047;28;20533;-80
2021/10/21 13:17:47;;;;;;;11.45;8.60;;;15.40;81.50;;;;;;4996296;28;20124;-80
2021/10/21 13:20:13;;;;;;;12.93;8.48;;;15.50;81.70;;;;;;4996470;28;20069;-79
2021/10/21 13:22:42;;;;;;;15.30;9.10;;;15.50;81.30;;;;;;4996518;28;20042;-80
2021/10/21 13:25:08;;;;;;;14.13;9.65;;;15.50;81.30;;;;;;4982729;28;20088;-81
2021/10/21 13:27:36;;;;;;;12.85;8.80;;;15.50;81.90;;;;;;4997451;28;20062;-81
2021/10/21 13:30:06;;;;;;;14.45;9.45;;;15.50;81.10;;;;;;4995302;28;20041;-81
2021/10/21 13:32:33;;;;;;;13.18;9.65;;;15.50;81.30;;;;;;4997568;28;20042;-81
2021/10/21 13:34:59;;;;;;;12.68;8.65;;;15.50;81.10;;;;;;4998789;28;20097;-83
2021/10/21 13:37:25;;;;;;;13.75;9.27;;;15.50;81.00;;;;;;5015482;28;20497;-83
2021/10/21 13:39:52;;;;;;;11.70;8.52;;;15.50;81.00;;;;;;5008598;28;20185;-81
2021/10/21 13:42:18;;;;;;;13.98;9.18;;;15.50;80.80;;;;;;5015713;28;20064;-84